sensor_id;sensor_type;location;lat;lon;timestamp;temperature;humidity
38239;DHT22;24035;48.900;9.188;2024-02-14T00:02:23;3.60;1.00
38239;DHT22;24035;48.900;9.188;2024-02-14T00:04:54;3.70;1.00
38239;DHT22;24035;48.900;9.188;2024-02-14T00:07:20;3.60;1.00
38239;DHT22;24035;48.900;9.188;2024-02-14T00:09:46;3.60;1.00
38239;DHT22;24035;48.900;9.188;2024-02-14T00:12:12;3.50;1.00
38239;DHT22;24035;48.900;9.188;2024-02-14T00:14:38;3.60;1.00
38239;DHT22;24035;48.900;9.188;2024-02-14T00:17:04;3.60;1.00
38239;DHT22;24035;48.900;9.188;2024-02-14T00:19:31;3.60;1.00
38239;DHT22;24035;48.900;9.188;2024-02-14T00:21:57;3.70;1.00
38239;DHT22;24035;48.900;9.188;2024-02-14T00:24:22;3.70;1.00
38239;DHT22;24035;48.900;9.188;2024-02-14T00:26:50;3.60;1.00
38239;DHT22;24035;48.900;9.188;2024-02-14T00:29:16;3.70;1.00
38239;DHT22;24035;48.900;9.188;2024-02-14T00:31:41;3.80;1.00
38239;DHT22;24035;48.900;9.188;2024-02-14T00:34:10;3.90;99.90
38239;DHT22;24035;48.900;9.188;2024-02-14T00:36:36;4.00;99.90
38239;DHT22;24035;48.900;9.188;2024-02-14T00:39:02;4.10;99.90
38239;DHT22;24035;48.900;9.188;2024-02-14T00:41:27;4.10;1.00
38239;DHT22;24035;48.900;9.188;2024-02-14T00:43:55;4.20;1.00
38239;DHT22;24035;48.900;9.188;2024-02-14T00:46:21;4.20;1.00
38239;DHT22;24035;48.900;9.188;2024-02-14T00:48:47;4.30;1.00
38239;DHT22;24035;48.900;9.188;2024-02-14T00:51:12;4.40;1.00
38239;DHT22;24035;48.900;9.188;2024-02-14T00:53:38;4.50;1.00
38239;DHT22;24035;48.900;9.188;2024-02-14T00:56:04;4.60;1.00
38239;DHT22;24035;48.900;9.188;2024-02-14T00:58:29;4.70;99.90
38239;DHT22;24035;48.900;9.188;2024-02-14T01:00:55;4.70;99.90
38239;DHT22;24035;48.900;9.188;2024-02-14T01:03:20;4.80;99.90
38239;DHT22;24035;48.900;9.188;2024-02-14T01:05:47;4.80;99.90
38239;DHT22;24035;48.900;9.188;2024-02-14T01:08:13;4.80;99.90
38239;DHT22;24035;48.900;9.188;2024-02-14T01:10:40;4.80;99.90
38239;DHT22;24035;48.900;9.188;2024-02-14T01:13:05;4.90;99.90
38239;DHT22;24035;48.900;9.188;2024-02-14T01:15:31;4.80;99.90
38239;DHT22;24035;48.900;9.188;2024-02-14T01:17:57;4.80;99.90
38239;DHT22;24035;48.900;9.188;2024-02-14T01:20:23;4.80;99.90
38239;DHT22;24035;48.900;9.188;2024-02-14T01:22:48;4.90;99.90
38239;DHT22;24035;48.900;9.188;2024-02-14T01:25:14;4.90;99.90
38239;DHT22;24035;48.900;9.188;2024-02-14T01:27:40;5.00;99.90
38239;DHT22;24035;48.900;9.188;2024-02-14T01:30:07;5.00;99.90
38239;DHT22;24035;48.900;9.188;2024-02-14T01:32:33;5.10;99.90
38239;DHT22;24035;48.900;9.188;2024-02-14T01:34:58;5.10;99.90
38239;DHT22;24035;48.900;9.188;2024-02-14T01:37:25;5.10;99.90
38239;DHT22;24035;48.900;9.188;2024-02-14T01:39:50;5.00;99.90
38239;DHT22;24035;48.900;9.188;2024-02-14T01:42:16;4.80;99.90
38239;DHT22;24035;48.900;9.188;2024-02-14T01:44:41;4.70;99.90
38239;DHT22;24035;48.900;9.188;2024-02-14T01:47:09;4.60;1.00
38239;DHT22;24035;48.900;9.188;2024-02-14T01:49:35;4.60;1.00
38239;DHT22;24035;48.900;9.188;2024-02-14T01:52:02;4.50;1.00
38239;DHT22;24035;48.900;9.188;2024-02-14T01:54:31;4.60;1.00
38239;DHT22;24035;48.900;9.188;2024-02-14T01:56:57;4.60;1.00
38239;DHT22;24035;48.900;9.188;2024-02-14T01:59:24;4.60;1.00
38239;DHT22;24035;48.900;9.188;2024-02-14T02:01:50;4.60;1.00
38239;DHT22;24035;48.900;9.188;2024-02-14T02:04:17;4.70;1.00
38239;DHT22;24035;48.900;9.188;2024-02-14T02:06:44;4.60;1.00
38239;DHT22;24035;48.900;9.188;2024-02-14T02:09:09;4.60;1.00
38239;DHT22;24035;48.900;9.188;2024-02-14T02:11:51;4.60;1.00
38239;DHT22;24035;48.900;9.188;2024-02-14T02:14:19;4.60;1.00
38239;DHT22;24035;48.900;9.188;2024-02-14T02:16:46;4.70;1.00
38239;DHT22;24035;48.900;9.188;2024-02-14T02:19:12;4.70;1.00
38239;DHT22;24035;48.900;9.188;2024-02-14T02:21:38;4.70;1.00
38239;DHT22;24035;48.900;9.188;2024-02-14T02:24:04;4.70;1.00
38239;DHT22;24035;48.900;9.188;2024-02-14T02:26:30;4.70;1.00
38239;DHT22;24035;48.900;9.188;2024-02-14T02:28:56;4.70;1.00
38239;DHT22;24035;48.900;9.188;2024-02-14T02:31:22;4.60;1.00
38239;DHT22;24035;48.900;9.188;2024-02-14T02:33:48;4.70;1.00
38239;DHT22;24035;48.900;9.188;2024-02-14T02:36:14;4.70;1.00
38239;DHT22;24035;48.900;9.188;2024-02-14T02:38:41;4.60;1.00
38239;DHT22;24035;48.900;9.188;2024-02-14T02:41:07;4.60;1.00
38239;DHT22;24035;48.900;9.188;2024-02-14T02:43:33;4.70;86.60
38239;DHT22;24035;48.900;9.188;2024-02-14T02:45:59;4.60;1.00
38239;DHT22;24035;48.900;9.188;2024-02-14T02:48:25;4.80;1.00
38239;DHT22;24035;48.900;9.188;2024-02-14T02:50:51;4.80;1.00
38239;DHT22;24035;48.900;9.188;2024-02-14T02:53:17;5.00;1.00
38239;DHT22;24035;48.900;9.188;2024-02-14T02:55:43;5.10;1.00
38239;DHT22;24035;48.900;9.188;2024-02-14T02:58:09;5.20;99.90
38239;DHT22;24035;48.900;9.188;2024-02-14T03:00:34;5.30;99.90
38239;DHT22;24035;48.900;9.188;2024-02-14T03:03:00;5.40;99.90
38239;DHT22;24035;48.900;9.188;2024-02-14T03:05:27;5.40;99.90
38239;DHT22;24035;48.900;9.188;2024-02-14T03:07:54;5.50;99.90
38239;DHT22;24035;48.900;9.188;2024-02-14T03:10:22;5.50;99.90
38239;DHT22;24035;48.900;9.188;2024-02-14T03:12:48;5.50;99.90
38239;DHT22;24035;48.900;9.188;2024-02-14T03:15:15;5.50;33.40
38239;DHT22;24035;48.900;9.188;2024-02-14T03:17:41;5.40;99.90
38239;DHT22;24035;48.900;9.188;2024-02-14T03:20:08;5.30;99.90
38239;DHT22;24035;48.900;9.188;2024-02-14T03:22:38;5.30;99.90
38239;DHT22;24035;48.900;9.188;2024-02-14T03:25:13;5.10;99.90
38239;DHT22;24035;48.900;9.188;2024-02-14T03:27:39;5.00;99.90
38239;DHT22;24035;48.900;9.188;2024-02-14T03:30:05;4.90;99.90
38239;DHT22;24035;48.900;9.188;2024-02-14T03:32:31;4.80;1.00
38239;DHT22;24035;48.900;9.188;2024-02-14T03:34:58;4.70;1.00
38239;DHT22;24035;48.900;9.188;2024-02-14T03:37:24;4.70;1.00
38239;DHT22;24035;48.900;9.188;2024-02-14T03:39:49;4.70;11.80
38239;DHT22;24035;48.900;9.188;2024-02-14T03:42:15;4.80;1.00
38239;DHT22;24035;48.900;9.188;2024-02-14T03:44:40;4.70;1.00
38239;DHT22;24035;48.900;9.188;2024-02-14T03:47:06;4.80;1.00
38239;DHT22;24035;48.900;9.188;2024-02-14T03:49:32;4.80;1.00
38239;DHT22;24035;48.900;9.188;2024-02-14T03:51:57;4.90;1.00
38239;DHT22;24035;48.900;9.188;2024-02-14T03:54:23;5.00;1.00
38239;DHT22;24035;48.900;9.188;2024-02-14T03:56:49;5.10;1.00
38239;DHT22;24035;48.900;9.188;2024-02-14T03:59:14;5.30;1.00
38239;DHT22;24035;48.900;9.188;2024-02-14T04:01:44;5.30;99.90
38239;DHT22;24035;48.900;9.188;2024-02-14T04:04:10;5.40;99.90
38239;DHT22;24035;48.900;9.188;2024-02-14T04:06:36;5.50;99.90
38239;DHT22;24035;48.900;9.188;2024-02-14T04:09:01;5.60;99.90
38239;DHT22;24035;48.900;9.188;2024-02-14T04:11:27;5.60;99.90
38239;DHT22;24035;48.900;9.188;2024-02-14T04:13:52;5.70;62.40
38239;DHT22;24035;48.900;9.188;2024-02-14T04:16:21;5.70;17.80
38239;DHT22;24035;48.900;9.188;2024-02-14T04:18:47;5.70;1.00
38239;DHT22;24035;48.900;9.188;2024-02-14T04:21:13;5.70;1.00
38239;DHT22;24035;48.900;9.188;2024-02-14T04:23:39;5.70;1.00
38239;DHT22;24035;48.900;9.188;2024-02-14T04:26:06;5.70;1.00
38239;DHT22;24035;48.900;9.188;2024-02-14T04:28:31;5.70;1.00
38239;DHT22;24035;48.900;9.188;2024-02-14T04:30:57;5.80;1.00
38239;DHT22;24035;48.900;9.188;2024-02-14T04:33:23;5.70;1.00
38239;DHT22;24035;48.900;9.188;2024-02-14T04:35:48;5.70;1.00
38239;DHT22;24035;48.900;9.188;2024-02-14T04:38:14;5.80;1.00
38239;DHT22;24035;48.900;9.188;2024-02-14T04:40:40;5.80;1.00
38239;DHT22;24035;48.900;9.188;2024-02-14T04:43:05;5.90;1.00
38239;DHT22;24035;48.900;9.188;2024-02-14T04:45:31;6.00;1.00
38239;DHT22;24035;48.900;9.188;2024-02-14T04:47:56;6.10;1.00
38239;DHT22;24035;48.900;9.188;2024-02-14T04:50:22;6.20;1.00
38239;DHT22;24035;48.900;9.188;2024-02-14T04:52:47;6.20;1.00
38239;DHT22;24035;48.900;9.188;2024-02-14T04:55:13;6.20;1.00
38239;DHT22;24035;48.900;9.188;2024-02-14T04:57:39;6.30;1.00
38239;DHT22;24035;48.900;9.188;2024-02-14T05:00:05;6.40;1.00
38239;DHT22;24035;48.900;9.188;2024-02-14T05:02:31;6.40;1.00
38239;DHT22;24035;48.900;9.188;2024-02-14T05:04:56;6.50;1.00
38239;DHT22;24035;48.900;9.188;2024-02-14T05:07:22;6.60;1.00
38239;DHT22;24035;48.900;9.188;2024-02-14T05:09:47;6.70;1.00
38239;DHT22;24035;48.900;9.188;2024-02-14T05:12:16;6.80;99.90
38239;DHT22;24035;48.900;9.188;2024-02-14T05:14:42;6.90;99.90
38239;DHT22;24035;48.900;9.188;2024-02-14T05:17:08;6.90;99.90
38239;DHT22;24035;48.900;9.188;2024-02-14T05:19:33;7.00;99.90
38239;DHT22;24035;48.900;9.188;2024-02-14T05:21:59;7.00;99.90
38239;DHT22;24035;48.900;9.188;2024-02-14T05:24:25;7.00;99.90
38239;DHT22;24035;48.900;9.188;2024-02-14T05:26:54;7.10;99.90
38239;DHT22;24035;48.900;9.188;2024-02-14T05:29:20;7.10;99.90
38239;DHT22;24035;48.900;9.188;2024-02-14T05:31:47;7.10;81.60
38239;DHT22;24035;48.900;9.188;2024-02-14T05:34:14;7.10;82.10
38239;DHT22;24035;48.900;9.188;2024-02-14T05:36:40;7.10;94.90
38239;DHT22;24035;48.900;9.188;2024-02-14T05:39:05;7.10;79.30
38239;DHT22;24035;48.900;9.188;2024-02-14T05:41:34;7.10;99.90
38239;DHT22;24035;48.900;9.188;2024-02-14T05:44:01;7.10;89.00
38239;DHT22;24035;48.900;9.188;2024-02-14T05:46:27;7.10;98.40
38239;DHT22;24035;48.900;9.188;2024-02-14T05:48:53;7.10;91.10
38239;DHT22;24035;48.900;9.188;2024-02-14T05:51:20;7.00;99.90
38239;DHT22;24035;48.900;9.188;2024-02-14T05:53:45;7.00;99.90
38239;DHT22;24035;48.900;9.188;2024-02-14T05:56:11;6.90;99.90
38239;DHT22;24035;48.900;9.188;2024-02-14T05:58:36;7.00;99.90
38239;DHT22;24035;48.900;9.188;2024-02-14T06:01:02;6.90;99.90
38239;DHT22;24035;48.900;9.188;2024-02-14T06:03:27;6.80;99.90
38239;DHT22;24035;48.900;9.188;2024-02-14T06:05:54;6.80;99.90
38239;DHT22;24035;48.900;9.188;2024-02-14T06:08:20;6.80;99.90
38239;DHT22;24035;48.900;9.188;2024-02-14T06:10:46;6.70;99.90
38239;DHT22;24035;48.900;9.188;2024-02-14T06:13:11;6.60;99.90
38239;DHT22;24035;48.900;9.188;2024-02-14T06:15:37;6.50;99.90
38239;DHT22;24035;48.900;9.188;2024-02-14T06:18:02;6.50;99.90
38239;DHT22;24035;48.900;9.188;2024-02-14T06:20:28;6.40;99.90
38239;DHT22;24035;48.900;9.188;2024-02-14T06:22:53;6.30;99.90
38239;DHT22;24035;48.900;9.188;2024-02-14T06:25:20;6.10;99.90
38239;DHT22;24035;48.900;9.188;2024-02-14T06:27:45;6.10;1.00
38239;DHT22;24035;48.900;9.188;2024-02-14T06:30:11;6.00;1.00
38239;DHT22;24035;48.900;9.188;2024-02-14T06:32:37;5.90;1.00
38239;DHT22;24035;48.900;9.188;2024-02-14T06:35:03;5.90;1.00
38239;DHT22;24035;48.900;9.188;2024-02-14T06:37:28;6.00;1.00
38239;DHT22;24035;48.900;9.188;2024-02-14T06:39:54;6.10;1.00
38239;DHT22;24035;48.900;9.188;2024-02-14T06:42:19;6.10;1.00
38239;DHT22;24035;48.900;9.188;2024-02-14T06:44:45;6.20;1.00
38239;DHT22;24035;48.900;9.188;2024-02-14T06:47:11;6.20;1.00
38239;DHT22;24035;48.900;9.188;2024-02-14T06:49:37;6.20;1.00
38239;DHT22;24035;48.900;9.188;2024-02-14T06:52:03;6.30;1.00
38239;DHT22;24035;48.900;9.188;2024-02-14T06:54:29;6.40;99.90
38239;DHT22;24035;48.900;9.188;2024-02-14T06:56:54;6.40;99.90
38239;DHT22;24035;48.900;9.188;2024-02-14T06:59:20;6.40;99.90
38239;DHT22;24035;48.900;9.188;2024-02-14T07:01:45;6.50;99.90
38239;DHT22;24035;48.900;9.188;2024-02-14T07:04:11;6.50;99.90
38239;DHT22;24035;48.900;9.188;2024-02-14T07:06:37;6.50;99.90
38239;DHT22;24035;48.900;9.188;2024-02-14T07:09:02;6.50;99.90
38239;DHT22;24035;48.900;9.188;2024-02-14T07:11:28;6.60;99.90
38239;DHT22;24035;48.900;9.188;2024-02-14T07:13:53;6.60;99.90
38239;DHT22;24035;48.900;9.188;2024-02-14T07:16:19;6.50;99.90
38239;DHT22;24035;48.900;9.188;2024-02-14T07:18:44;6.50;99.90
38239;DHT22;24035;48.900;9.188;2024-02-14T07:21:10;6.60;99.90
38239;DHT22;24035;48.900;9.188;2024-02-14T07:23:36;6.60;99.90
38239;DHT22;24035;48.900;9.188;2024-02-14T07:26:01;6.70;99.90
38239;DHT22;24035;48.900;9.188;2024-02-14T07:28:27;6.80;99.90
38239;DHT22;24035;48.900;9.188;2024-02-14T07:30:53;6.90;99.90
38239;DHT22;24035;48.900;9.188;2024-02-14T07:33:18;7.10;99.90
38239;DHT22;24035;48.900;9.188;2024-02-14T07:35:44;7.10;99.90
38239;DHT22;24035;48.900;9.188;2024-02-14T07:38:09;7.30;94.00
38239;DHT22;24035;48.900;9.188;2024-02-14T07:40:35;7.40;65.00
38239;DHT22;24035;48.900;9.188;2024-02-14T07:43:01;7.50;47.10
38239;DHT22;24035;48.900;9.188;2024-02-14T07:45:27;7.70;1.00
38239;DHT22;24035;48.900;9.188;2024-02-14T07:47:53;7.90;1.00
38239;DHT22;24035;48.900;9.188;2024-02-14T07:50:19;8.00;1.00
38239;DHT22;24035;48.900;9.188;2024-02-14T07:52:46;8.20;1.00
38239;DHT22;24035;48.900;9.188;2024-02-14T07:55:12;8.40;1.00
38239;DHT22;24035;48.900;9.188;2024-02-14T07:57:42;8.50;1.00
38239;DHT22;24035;48.900;9.188;2024-02-14T08:00:08;8.70;1.00
38239;DHT22;24035;48.900;9.188;2024-02-14T08:02:35;8.90;1.00
38239;DHT22;24035;48.900;9.188;2024-02-14T08:05:01;9.00;1.00
38239;DHT22;24035;48.900;9.188;2024-02-14T08:07:27;9.00;1.00
38239;DHT22;24035;48.900;9.188;2024-02-14T08:09:53;9.20;1.00
38239;DHT22;24035;48.900;9.188;2024-02-14T08:12:19;9.20;1.00
38239;DHT22;24035;48.900;9.188;2024-02-14T08:14:45;9.20;1.00
38239;DHT22;24035;48.900;9.188;2024-02-14T08:17:10;9.40;1.00
38239;DHT22;24035;48.900;9.188;2024-02-14T08:19:36;9.50;1.00
38239;DHT22;24035;48.900;9.188;2024-02-14T08:22:01;9.60;1.00
38239;DHT22;24035;48.900;9.188;2024-02-14T08:24:28;9.70;1.00
38239;DHT22;24035;48.900;9.188;2024-02-14T08:26:54;9.70;1.00
38239;DHT22;24035;48.900;9.188;2024-02-14T08:29:20;9.70;1.00
38239;DHT22;24035;48.900;9.188;2024-02-14T08:31:46;9.80;1.00
38239;DHT22;24035;48.900;9.188;2024-02-14T08:34:12;9.70;1.00
38239;DHT22;24035;48.900;9.188;2024-02-14T08:36:37;9.80;1.00
38239;DHT22;24035;48.900;9.188;2024-02-14T08:39:10;9.90;1.00
38239;DHT22;24035;48.900;9.188;2024-02-14T08:41:36;10.00;1.00
38239;DHT22;24035;48.900;9.188;2024-02-14T08:44:02;10.10;1.00
38239;DHT22;24035;48.900;9.188;2024-02-14T08:46:29;10.20;1.00
38239;DHT22;24035;48.900;9.188;2024-02-14T08:48:55;10.30;1.00
38239;DHT22;24035;48.900;9.188;2024-02-14T08:51:20;10.50;99.90
38239;DHT22;24035;48.900;9.188;2024-02-14T08:53:46;10.60;99.90
38239;DHT22;24035;48.900;9.188;2024-02-14T08:56:12;10.80;99.90
38239;DHT22;24035;48.900;9.188;2024-02-14T08:58:38;10.80;99.90
38239;DHT22;24035;48.900;9.188;2024-02-14T09:01:04;11.00;99.90
38239;DHT22;24035;48.900;9.188;2024-02-14T09:03:29;11.20;99.90
38239;DHT22;24035;48.900;9.188;2024-02-14T09:05:57;11.20;99.90
38239;DHT22;24035;48.900;9.188;2024-02-14T09:08:23;11.20;99.90
38239;DHT22;24035;48.900;9.188;2024-02-14T09:10:49;11.40;99.90
38239;DHT22;24035;48.900;9.188;2024-02-14T09:13:15;11.40;99.90
38239;DHT22;24035;48.900;9.188;2024-02-14T09:15:41;11.40;99.90
38239;DHT22;24035;48.900;9.188;2024-02-14T09:18:06;11.40;99.90
38239;DHT22;24035;48.900;9.188;2024-02-14T09:20:50;11.40;99.90
38239;DHT22;24035;48.900;9.188;2024-02-14T09:23:36;11.50;99.90
38239;DHT22;24035;48.900;9.188;2024-02-14T09:26:26;11.50;99.90
38239;DHT22;24035;48.900;9.188;2024-02-14T09:29:12;11.70;99.90
38239;DHT22;24035;48.900;9.188;2024-02-14T09:31:58;11.80;99.90
38239;DHT22;24035;48.900;9.188;2024-02-14T09:34:44;11.80;99.90
38239;DHT22;24035;48.900;9.188;2024-02-14T09:37:32;12.00;99.90
38239;DHT22;24035;48.900;9.188;2024-02-14T09:40:18;12.30;99.90
38239;DHT22;24035;48.900;9.188;2024-02-14T09:43:10;12.30;99.90
38239;DHT22;24035;48.900;9.188;2024-02-14T09:45:59;12.20;99.90
38239;DHT22;24035;48.900;9.188;2024-02-14T09:48:46;12.20;99.90
38239;DHT22;24035;48.900;9.188;2024-02-14T09:51:32;12.20;99.90
38239;DHT22;24035;48.900;9.188;2024-02-14T09:54:18;12.10;99.90
38239;DHT22;24035;48.900;9.188;2024-02-14T09:57:04;12.10;99.90
38239;DHT22;24035;48.900;9.188;2024-02-14T09:59:52;12.20;99.90
38239;DHT22;24035;48.900;9.188;2024-02-14T10:02:39;12.10;99.90
38239;DHT22;24035;48.900;9.188;2024-02-14T10:05:25;12.40;99.90
38239;DHT22;24035;48.900;9.188;2024-02-14T10:08:11;12.60;99.90
38239;DHT22;24035;48.900;9.188;2024-02-14T10:10:57;12.80;99.90
38239;DHT22;24035;48.900;9.188;2024-02-14T10:13:45;13.00;99.90
38239;DHT22;24035;48.900;9.188;2024-02-14T10:16:35;13.20;99.90
38239;DHT22;24035;48.900;9.188;2024-02-14T10:19:21;13.30;99.90
38239;DHT22;24035;48.900;9.188;2024-02-14T10:22:07;13.30;99.90
38239;DHT22;24035;48.900;9.188;2024-02-14T10:24:53;13.30;99.90
38239;DHT22;24035;48.900;9.188;2024-02-14T10:27:39;13.30;99.90
38239;DHT22;24035;48.900;9.188;2024-02-14T10:30:26;13.40;99.90
38239;DHT22;24035;48.900;9.188;2024-02-14T10:33:12;13.60;99.90
38239;DHT22;24035;48.900;9.188;2024-02-14T10:35:58;13.70;99.90
38239;DHT22;24035;48.900;9.188;2024-02-14T10:38:47;13.60;99.90
38239;DHT22;24035;48.900;9.188;2024-02-14T10:41:35;13.20;99.90
38239;DHT22;24035;48.900;9.188;2024-02-14T10:44:21;13.00;99.90
38239;DHT22;24035;48.900;9.188;2024-02-14T10:47:10;13.10;99.90
38239;DHT22;24035;48.900;9.188;2024-02-14T10:50:02;13.00;99.90
38239;DHT22;24035;48.900;9.188;2024-02-14T10:52:49;12.80;99.90
38239;DHT22;24035;48.900;9.188;2024-02-14T10:55:35;12.70;99.90
38239;DHT22;24035;48.900;9.188;2024-02-14T10:58:24;12.80;99.90
38239;DHT22;24035;48.900;9.188;2024-02-14T11:01:10;13.10;99.90
38239;DHT22;24035;48.900;9.188;2024-02-14T11:03:58;13.50;99.90
38239;DHT22;24035;48.900;9.188;2024-02-14T11:06:46;13.80;99.90
38239;DHT22;24035;48.900;9.188;2024-02-14T11:09:33;14.10;99.90
38239;DHT22;24035;48.900;9.188;2024-02-14T11:12:22;14.20;99.90
38239;DHT22;24035;48.900;9.188;2024-02-14T11:15:20;14.10;99.90
38239;DHT22;24035;48.900;9.188;2024-02-14T11:18:07;13.90;99.90
38239;DHT22;24035;48.900;9.188;2024-02-14T11:20:53;13.80;99.90
38239;DHT22;24035;48.900;9.188;2024-02-14T11:23:39;13.70;99.90
38239;DHT22;24035;48.900;9.188;2024-02-14T11:26:24;13.60;99.90
38239;DHT22;24035;48.900;9.188;2024-02-14T11:29:14;13.60;99.90
38239;DHT22;24035;48.900;9.188;2024-02-14T11:32:02;13.50;99.90
38239;DHT22;24035;48.900;9.188;2024-02-14T11:34:54;13.50;99.90
38239;DHT22;24035;48.900;9.188;2024-02-14T11:37:41;13.40;99.90
38239;DHT22;24035;48.900;9.188;2024-02-14T11:40:27;13.20;99.90
38239;DHT22;24035;48.900;9.188;2024-02-14T11:43:15;13.00;99.90
38239;DHT22;24035;48.900;9.188;2024-02-14T11:46:02;13.00;99.90
38239;DHT22;24035;48.900;9.188;2024-02-14T11:48:50;12.90;99.90
38239;DHT22;24035;48.900;9.188;2024-02-14T11:51:39;13.00;1.00
38239;DHT22;24035;48.900;9.188;2024-02-14T11:54:26;13.10;1.00
38239;DHT22;24035;48.900;9.188;2024-02-14T11:57:12;13.00;99.90
38239;DHT22;24035;48.900;9.188;2024-02-14T12:00:02;13.00;99.90
38239;DHT22;24035;48.900;9.188;2024-02-14T12:02:48;12.80;99.90
38239;DHT22;24035;48.900;9.188;2024-02-14T12:05:36;12.70;99.90
38239;DHT22;24035;48.900;9.188;2024-02-14T12:08:23;13.00;1.00
38239;DHT22;24035;48.900;9.188;2024-02-14T12:11:09;13.30;99.90
38239;DHT22;24035;48.900;9.188;2024-02-14T12:13:55;13.30;99.90
38239;DHT22;24035;48.900;9.188;2024-02-14T12:16:41;13.40;99.90
38239;DHT22;24035;48.900;9.188;2024-02-14T12:19:27;13.00;99.90
38239;DHT22;24035;48.900;9.188;2024-02-14T12:22:15;12.90;1.00
38239;DHT22;24035;48.900;9.188;2024-02-14T12:25:03;13.20;1.00
38239;DHT22;24035;48.900;9.188;2024-02-14T12:27:51;13.60;1.00
38239;DHT22;24035;48.900;9.188;2024-02-14T12:30:48;13.70;1.00
38239;DHT22;24035;48.900;9.188;2024-02-14T12:33:35;13.60;1.00
38239;DHT22;24035;48.900;9.188;2024-02-14T12:36:21;13.80;1.00
38239;DHT22;24035;48.900;9.188;2024-02-14T12:39:07;13.90;1.00
38239;DHT22;24035;48.900;9.188;2024-02-14T12:41:55;14.20;99.90
38239;DHT22;24035;48.900;9.188;2024-02-14T12:44:41;14.60;99.90
38239;DHT22;24035;48.900;9.188;2024-02-14T12:47:27;14.90;99.90
38239;DHT22;24035;48.900;9.188;2024-02-14T12:50:17;15.00;99.90
38239;DHT22;24035;48.900;9.188;2024-02-14T12:53:06;15.00;99.90
38239;DHT22;24035;48.900;9.188;2024-02-14T12:55:52;15.10;99.90
38239;DHT22;24035;48.900;9.188;2024-02-14T12:58:38;15.40;99.90
38239;DHT22;24035;48.900;9.188;2024-02-14T13:01:24;15.70;99.90
38239;DHT22;24035;48.900;9.188;2024-02-14T13:03:53;15.80;99.90
38239;DHT22;24035;48.900;9.188;2024-02-14T13:06:18;15.80;99.90
38239;DHT22;24035;48.900;9.188;2024-02-14T13:08:44;16.20;99.90
38239;DHT22;24035;48.900;9.188;2024-02-14T13:11:11;16.40;99.90
38239;DHT22;24035;48.900;9.188;2024-02-14T13:13:37;16.60;99.90
38239;DHT22;24035;48.900;9.188;2024-02-14T13:16:03;16.60;99.90
38239;DHT22;24035;48.900;9.188;2024-02-14T13:18:29;16.50;99.90
38239;DHT22;24035;48.900;9.188;2024-02-14T13:20:54;16.10;99.90
38239;DHT22;24035;48.900;9.188;2024-02-14T13:23:28;15.80;99.90
38239;DHT22;24035;48.900;9.188;2024-02-14T13:25:53;15.30;99.90
38239;DHT22;24035;48.900;9.188;2024-02-14T13:28:19;15.10;99.90
38239;DHT22;24035;48.900;9.188;2024-02-14T13:30:45;15.20;99.90
38239;DHT22;24035;48.900;9.188;2024-02-14T13:33:13;15.30;99.90
38239;DHT22;24035;48.900;9.188;2024-02-14T13:35:39;15.30;99.90
38239;DHT22;24035;48.900;9.188;2024-02-14T13:38:05;15.40;99.90
38239;DHT22;24035;48.900;9.188;2024-02-14T13:40:32;15.40;99.90
38239;DHT22;24035;48.900;9.188;2024-02-14T13:42:57;15.40;99.90
38239;DHT22;24035;48.900;9.188;2024-02-14T13:45:23;15.50;99.90
38239;DHT22;24035;48.900;9.188;2024-02-14T13:47:50;15.60;99.90
38239;DHT22;24035;48.900;9.188;2024-02-14T13:50:16;15.60;99.90
38239;DHT22;24035;48.900;9.188;2024-02-14T13:52:42;15.70;99.90
38239;DHT22;24035;48.900;9.188;2024-02-14T13:55:08;15.80;99.90
38239;DHT22;24035;48.900;9.188;2024-02-14T13:57:38;15.80;99.90
38239;DHT22;24035;48.900;9.188;2024-02-14T14:00:08;15.80;99.90
38239;DHT22;24035;48.900;9.188;2024-02-14T14:02:37;15.90;99.90
38239;DHT22;24035;48.900;9.188;2024-02-14T14:05:07;15.80;99.90
38239;DHT22;24035;48.900;9.188;2024-02-14T14:07:40;15.60;99.90
38239;DHT22;24035;48.900;9.188;2024-02-14T14:10:08;15.60;99.90
38239;DHT22;24035;48.900;9.188;2024-02-14T14:12:34;15.60;99.90
38239;DHT22;24035;48.900;9.188;2024-02-14T14:15:01;15.50;99.90
38239;DHT22;24035;48.900;9.188;2024-02-14T14:17:27;15.20;99.90
38239;DHT22;24035;48.900;9.188;2024-02-14T14:19:53;15.20;99.90
38239;DHT22;24035;48.900;9.188;2024-02-14T14:22:19;15.10;99.90
38239;DHT22;24035;48.900;9.188;2024-02-14T14:24:51;15.10;99.90
38239;DHT22;24035;48.900;9.188;2024-02-14T14:27:17;15.00;99.90
38239;DHT22;24035;48.900;9.188;2024-02-14T14:29:43;14.90;99.90
38239;DHT22;24035;48.900;9.188;2024-02-14T14:32:11;14.80;99.90
38239;DHT22;24035;48.900;9.188;2024-02-14T14:34:37;14.70;1.00
38239;DHT22;24035;48.900;9.188;2024-02-14T14:37:03;14.80;1.00
38239;DHT22;24035;48.900;9.188;2024-02-14T14:39:29;14.90;1.00
38239;DHT22;24035;48.900;9.188;2024-02-14T14:41:57;14.90;1.00
38239;DHT22;24035;48.900;9.188;2024-02-14T14:44:26;14.90;1.00
38239;DHT22;24035;48.900;9.188;2024-02-14T14:46:53;15.00;1.00
38239;DHT22;24035;48.900;9.188;2024-02-14T14:49:19;14.90;1.00
38239;DHT22;24035;48.900;9.188;2024-02-14T14:51:45;14.90;1.00
38239;DHT22;24035;48.900;9.188;2024-02-14T14:54:10;14.90;1.00
38239;DHT22;24035;48.900;9.188;2024-02-14T14:56:36;15.00;1.00
38239;DHT22;24035;48.900;9.188;2024-02-14T14:59:02;14.90;1.00
38239;DHT22;24035;48.900;9.188;2024-02-14T15:01:30;14.90;1.00
38239;DHT22;24035;48.900;9.188;2024-02-14T15:03:56;14.90;1.00
38239;DHT22;24035;48.900;9.188;2024-02-14T15:06:22;14.80;1.00
38239;DHT22;24035;48.900;9.188;2024-02-14T15:08:47;14.70;1.00
38239;DHT22;24035;48.900;9.188;2024-02-14T15:11:13;14.80;1.00
38239;DHT22;24035;48.900;9.188;2024-02-14T15:13:42;14.90;1.00
38239;DHT22;24035;48.900;9.188;2024-02-14T15:16:09;15.00;1.00
38239;DHT22;24035;48.900;9.188;2024-02-14T15:18:36;15.10;1.00
38239;DHT22;24035;48.900;9.188;2024-02-14T15:21:02;15.00;1.00
38239;DHT22;24035;48.900;9.188;2024-02-14T15:23:28;15.00;1.00
38239;DHT22;24035;48.900;9.188;2024-02-14T15:25:54;15.00;1.00
38239;DHT22;24035;48.900;9.188;2024-02-14T15:28:28;14.70;1.00
38239;DHT22;24035;48.900;9.188;2024-02-14T15:30:59;14.60;1.00
38239;DHT22;24035;48.900;9.188;2024-02-14T15:33:43;14.40;1.00
38239;DHT22;24035;48.900;9.188;2024-02-14T15:36:09;14.40;1.00
38239;DHT22;24035;48.900;9.188;2024-02-14T15:38:36;14.30;1.00
38239;DHT22;24035;48.900;9.188;2024-02-14T15:41:02;14.30;1.00
38239;DHT22;24035;48.900;9.188;2024-02-14T15:43:30;14.30;1.00
38239;DHT22;24035;48.900;9.188;2024-02-14T15:45:59;14.30;1.00
38239;DHT22;24035;48.900;9.188;2024-02-14T15:48:26;14.20;1.00
38239;DHT22;24035;48.900;9.188;2024-02-14T15:50:54;14.00;1.00
38239;DHT22;24035;48.900;9.188;2024-02-14T15:53:20;14.00;1.00
38239;DHT22;24035;48.900;9.188;2024-02-14T15:55:48;13.90;1.00
38239;DHT22;24035;48.900;9.188;2024-02-14T15:58:16;13.60;1.00
38239;DHT22;24035;48.900;9.188;2024-02-14T16:00:42;13.50;1.00
38239;DHT22;24035;48.900;9.188;2024-02-14T16:03:08;13.50;1.00
38239;DHT22;24035;48.900;9.188;2024-02-14T16:05:35;13.50;1.00
38239;DHT22;24035;48.900;9.188;2024-02-14T16:08:02;13.50;1.00